createdAt,value
2018-05-10T00:00:38.630Z,0.00
2018-05-10T00:01:38.719Z,0.00
2018-05-10T00:02:38.704Z,0.00
2018-05-10T00:03:39.042Z,0.00
2018-05-10T00:04:38.763Z,0.00
2018-05-10T00:05:38.794Z,0.00
2018-05-10T00:06:38.835Z,0.00
2018-05-10T00:07:38.874Z,0.00
2018-05-10T00:08:38.900Z,0.00
2018-05-10T00:09:38.938Z,0.00
2018-05-10T00:10:39.326Z,0.00
2018-05-10T00:11:38.996Z,0.00
2018-05-10T00:12:39.027Z,0.00
2018-05-10T00:13:39.069Z,0.00
2018-05-10T00:14:39.141Z,0.00
2018-05-10T00:15:39.204Z,0.00
2018-05-10T00:16:39.157Z,0.00
2018-05-10T00:17:39.496Z,0.00
2018-05-10T00:18:39.230Z,0.00
2018-05-10T00:19:39.264Z,0.00
2018-05-10T00:20:39.290Z,0.00
2018-05-10T00:21:39.382Z,0.00
2018-05-10T00:22:39.407Z,0.00
2018-05-10T00:23:39.415Z,0.00
2018-05-10T00:24:39.723Z,0.00
2018-05-10T00:25:39.494Z,0.00
2018-05-10T00:26:39.507Z,0.00
2018-05-10T00:27:39.645Z,0.00
2018-05-10T00:28:39.664Z,0.00
2018-05-10T00:29:39.596Z,0.00
2018-05-10T00:30:39.657Z,0.00
2018-05-10T00:31:39.955Z,0.00
2018-05-10T00:32:39.721Z,0.00
2018-05-10T00:33:39.730Z,0.00
2018-05-10T00:34:39.756Z,0.00
2018-05-10T00:35:39.907Z,0.00
2018-05-10T00:36:39.822Z,0.00
2018-05-10T00:37:39.879Z,0.00
2018-05-10T00:38:40.194Z,0.00
2018-05-10T00:39:39.916Z,0.00
2018-05-10T00:40:40.104Z,0.00
2018-05-10T00:41:39.997Z,0.00
2018-05-10T00:42:40.019Z,0.00
2018-05-10T00:43:40.133Z,0.00
2018-05-10T00:44:40.432Z,0.00
2018-05-10T00:45:40.175Z,0.00
2018-05-10T00:46:40.148Z,0.00
2018-05-10T00:47:40.243Z,0.00
2018-05-10T00:48:40.261Z,0.00
2018-05-10T00:49:40.247Z,0.00
2018-05-10T00:50:40.581Z,0.00
2018-05-10T00:51:40.307Z,0.00
2018-05-10T00:52:40.354Z,0.00
2018-05-10T00:53:40.429Z,0.00
2018-05-10T00:54:40.406Z,0.00
2018-05-10T00:55:40.445Z,0.00
2018-05-10T00:56:40.768Z,0.00
2018-05-10T00:57:40.571Z,0.00
2018-05-10T00:58:40.533Z,0.00
2018-05-10T00:59:40.654Z,0.00
2018-05-10T01:00:40.599Z,0.00
2018-05-10T01:01:40.684Z,0.00
2018-05-10T01:02:40.984Z,0.00
2018-05-10T01:03:40.698Z,0.00
2018-05-10T01:04:40.757Z,0.00
2018-05-10T01:05:40.759Z,0.00
2018-05-10T01:06:40.794Z,0.00
2018-05-10T01:07:40.879Z,0.00
2018-05-10T01:08:41.158Z,0.00
2018-05-10T01:09:40.888Z,0.00
2018-05-10T01:10:40.942Z,0.00
2018-05-10T01:11:40.976Z,0.00
2018-05-10T01:12:41.042Z,0.00
2018-05-10T01:13:41.021Z,0.00
2018-05-10T01:14:41.361Z,0.00
2018-05-10T01:15:41.174Z,0.00
2018-05-10T01:16:41.112Z,0.00
2018-05-10T01:17:41.183Z,0.00
2018-05-10T01:18:41.176Z,0.00
2018-05-10T01:19:41.209Z,0.00
2018-05-10T01:20:41.614Z,0.00
2018-05-10T01:21:41.274Z,0.00
2018-05-10T01:22:41.340Z,0.00
2018-05-10T01:23:41.474Z,0.00
2018-05-10T01:24:41.383Z,0.00
2018-05-10T01:25:41.406Z,0.00
2018-05-10T01:26:41.801Z,0.00
2018-05-10T01:27:41.465Z,0.00
2018-05-10T01:28:41.547Z,0.00
2018-05-10T01:29:41.531Z,0.00
2018-05-10T01:30:41.554Z,0.00
2018-05-10T01:31:41.591Z,0.00
2018-05-10T01:32:42.013Z,0.00
2018-05-10T01:33:41.701Z,0.00
2018-05-10T01:34:41.682Z,0.00
2018-05-10T01:35:41.732Z,0.00
2018-05-10T01:36:41.749Z,0.00
2018-05-10T01:37:41.800Z,0.00
2018-05-10T01:38:42.168Z,0.00
2018-05-10T01:39:41.836Z,0.00
2018-05-10T01:40:42.012Z,0.00
2018-05-10T01:41:41.906Z,0.00
2018-05-10T01:42:41.980Z,0.00
2018-05-10T01:43:42.171Z,0.00
2018-05-10T01:44:42.367Z,0.00
2018-05-10T01:45:42.069Z,0.00
2018-05-10T01:46:42.056Z,0.00
2018-05-10T01:47:42.108Z,0.00
2018-05-10T01:48:42.216Z,0.00
2018-05-10T01:49:42.167Z,0.00
2018-05-10T01:50:42.496Z,0.00
2018-05-10T01:51:42.266Z,0.00
2018-05-10T01:52:42.241Z,0.00
2018-05-10T01:53:42.281Z,0.00
2018-05-10T01:54:42.307Z,0.00
2018-05-10T01:55:42.336Z,0.00
2018-05-10T01:56:42.677Z,0.00
2018-05-10T01:57:42.397Z,0.00
2018-05-10T01:58:42.434Z,0.00
2018-05-10T01:59:42.571Z,0.00
2018-05-10T02:00:42.495Z,0.00
2018-05-10T02:01:42.551Z,0.00
2018-05-10T02:02:42.557Z,0.00
2018-05-10T02:03:42.943Z,0.00
2018-05-10T02:04:42.633Z,0.00
2018-05-10T02:05:42.650Z,0.00
2018-05-10T02:06:42.712Z,0.00
2018-05-10T02:07:42.718Z,0.00
2018-05-10T02:08:42.803Z,0.00
2018-05-10T02:09:42.777Z,0.00
2018-05-10T02:10:43.132Z,0.00
2018-05-10T02:11:42.872Z,0.00
2018-05-10T02:12:42.869Z,0.00
2018-05-10T02:13:42.985Z,0.00
2018-05-10T02:14:43.090Z,0.00
2018-05-10T02:15:42.961Z,0.00
2018-05-10T02:16:43.000Z,0.00
2018-05-10T02:17:43.416Z,0.00
2018-05-10T02:18:43.146Z,0.00
2018-05-10T02:19:43.087Z,0.00
2018-05-10T02:20:43.117Z,0.00
2018-05-10T02:21:43.206Z,0.00
2018-05-10T02:22:43.186Z,0.00
2018-05-10T02:23:43.210Z,0.00
2018-05-10T02:24:43.251Z,0.00
2018-05-10T02:25:43.372Z,0.00
2018-05-10T02:26:43.353Z,0.00
2018-05-10T02:27:43.363Z,0.00
2018-05-10T02:28:43.382Z,0.00
2018-05-10T02:29:43.485Z,0.00
2018-05-10T02:30:43.793Z,0.00
2018-05-10T02:31:43.466Z,0.00
2018-05-10T02:32:43.515Z,0.00
2018-05-10T02:33:43.590Z,0.00
2018-05-10T02:34:43.550Z,0.00
2018-05-10T02:35:43.588Z,0.00
2018-05-10T02:36:43.615Z,0.00
2018-05-10T02:37:43.950Z,0.00
2018-05-10T02:38:43.769Z,0.00
2018-05-10T02:39:43.716Z,0.00
2018-05-10T02:40:43.740Z,0.00
2018-05-10T02:41:43.837Z,0.00
2018-05-10T02:42:43.806Z,0.00
2018-05-10T02:43:43.835Z,0.00
2018-05-10T02:44:44.165Z,0.00
2018-05-10T02:45:43.898Z,0.00
2018-05-10T02:46:43.931Z,0.00
2018-05-10T02:47:43.954Z,0.00
2018-05-10T02:48:44.002Z,0.00
2018-05-10T02:49:44.027Z,0.00
2018-05-10T02:50:44.073Z,0.00
2018-05-10T02:51:44.442Z,0.00
2018-05-10T02:52:44.110Z,0.00
2018-05-10T02:53:44.199Z,0.00
2018-05-10T02:54:44.227Z,0.00
2018-05-10T02:55:44.252Z,0.00
2018-05-10T02:56:44.252Z,0.00
2018-05-10T02:57:44.284Z,0.00
2018-05-10T02:58:44.611Z,0.00
2018-05-10T02:59:44.380Z,0.00
2018-05-10T03:00:44.356Z,0.00
2018-05-10T03:01:44.406Z,0.00
2018-05-10T03:02:44.479Z,0.00
2018-05-10T03:03:44.452Z,0.00
2018-05-10T03:04:44.498Z,0.00
2018-05-10T03:05:44.815Z,0.00
2018-05-10T03:06:44.591Z,0.00
2018-05-10T03:07:44.579Z,0.00
2018-05-10T03:08:44.617Z,0.00
2018-05-10T03:09:44.661Z,0.00
2018-05-10T03:10:44.778Z,0.00
2018-05-10T03:11:44.702Z,0.00
2018-05-10T03:12:45.128Z,0.00
2018-05-10T03:13:44.765Z,0.00
2018-05-10T03:14:44.811Z,0.00
2018-05-10T03:15:44.822Z,0.00
2018-05-10T03:16:44.858Z,0.00
2018-05-10T03:17:44.886Z,0.00
2018-05-10T03:18:45.222Z,0.00
2018-05-10T03:19:45.001Z,0.00
2018-05-10T03:20:44.992Z,0.00
2018-05-10T03:21:45.109Z,0.00
2018-05-10T03:22:45.041Z,0.00
2018-05-10T03:23:45.125Z,4.00
2018-05-10T03:24:45.402Z,4.00
2018-05-10T03:25:45.130Z,4.00
2018-05-10T03:26:45.212Z,4.00
2018-05-10T03:27:45.190Z,4.00
2018-05-10T03:28:45.232Z,4.00
2018-05-10T03:29:45.256Z,8.00
2018-05-10T03:30:45.587Z,4.00
2018-05-10T03:31:45.479Z,8.00
2018-05-10T03:32:45.351Z,8.00
2018-05-10T03:33:45.379Z,8.00
2018-05-10T03:34:45.406Z,8.00
2018-05-10T03:35:45.466Z,12.00
2018-05-10T03:36:45.781Z,16.00
2018-05-10T03:37:45.549Z,16.00
2018-05-10T03:38:45.532Z,16.00
2018-05-10T03:39:45.572Z,20.00
2018-05-10T03:40:45.656Z,24.00
2018-05-10T03:44:46.035Z,36.00
2018-05-10T03:45:45.780Z,44.00
2018-05-10T03:46:45.775Z,48.00
2018-05-10T03:47:45.808Z,52.00
2018-05-10T03:48:45.839Z,56.00
2018-05-10T03:49:45.871Z,60.00
2018-05-10T03:50:46.254Z,64.00
2018-05-10T03:51:45.938Z,72.00
2018-05-10T03:52:45.965Z,80.00
2018-05-10T03:53:45.998Z,84.00
2018-05-10T03:54:46.020Z,92.00
2018-05-10T03:55:46.131Z,100.00
2018-05-10T03:56:46.388Z,104.00
2018-05-10T03:57:46.127Z,112.00
2018-05-10T03:58:46.149Z,120.00
2018-05-10T03:59:46.200Z,128.00
2018-05-10T04:00:46.303Z,136.00
2018-05-10T04:01:46.249Z,144.00
2018-05-10T04:02:46.634Z,152.00
2018-05-10T04:03:46.317Z,160.00
2018-05-10T04:04:46.331Z,168.00
2018-05-10T04:05:46.443Z,176.00
2018-05-10T04:06:46.400Z,184.00
2018-05-10T04:07:46.427Z,192.00
2018-05-10T04:08:46.918Z,200.00
2018-05-10T04:09:46.492Z,212.00
2018-05-10T04:10:46.527Z,220.00
2018-05-10T04:11:46.629Z,232.00
2018-05-10T04:12:46.577Z,240.00
2018-05-10T04:13:46.602Z,248.00
2018-05-10T04:14:46.957Z,260.00
2018-05-10T04:15:46.769Z,268.00
2018-05-10T04:16:46.695Z,276.00
2018-05-10T04:17:46.734Z,280.00
2018-05-10T04:18:46.766Z,292.00
2018-05-10T04:19:46.793Z,300.00
2018-05-10T04:20:47.236Z,308.00
2018-05-10T04:21:46.858Z,312.00
2018-05-10T04:22:46.934Z,324.00
2018-05-10T04:23:47.069Z,328.00
2018-05-10T04:24:47.099Z,340.00
2018-05-10T04:25:46.988Z,348.00
2018-05-10T04:26:47.362Z,356.00
2018-05-10T04:27:47.069Z,360.00
2018-05-10T04:28:47.172Z,368.00
2018-05-10T04:29:47.105Z,380.00
2018-05-10T04:30:47.209Z,388.00
2018-05-10T04:31:47.173Z,392.00
2018-05-10T04:32:47.487Z,400.00
2018-05-10T04:33:47.218Z,404.00
2018-05-10T04:34:47.310Z,412.00
2018-05-10T04:35:47.321Z,420.00
2018-05-10T04:36:47.374Z,436.00
2018-05-10T04:37:47.394Z,448.00
2018-05-10T04:38:47.434Z,464.00
2018-05-10T04:39:47.721Z,476.00
2018-05-10T04:40:47.459Z,492.00
2018-05-10T04:41:47.464Z,500.00
2018-05-10T04:42:47.507Z,512.00
2018-05-10T04:43:47.614Z,528.00
2018-05-10T04:44:47.562Z,540.00
2018-05-10T04:45:47.590Z,560.00
2018-05-10T04:46:48.012Z,576.00
2018-05-10T04:47:47.663Z,588.00
2018-05-10T04:48:47.730Z,600.00
2018-05-10T04:49:47.709Z,604.00
2018-05-10T04:50:47.744Z,612.00
2018-05-10T04:51:47.776Z,612.00
2018-05-10T04:52:47.818Z,612.00
2018-05-10T04:53:48.179Z,608.00
2018-05-10T04:54:47.875Z,608.00
2018-05-10T04:55:47.888Z,612.00
2018-05-10T04:56:47.967Z,616.00
2018-05-10T04:57:48.026Z,620.00
2018-05-10T04:58:47.984Z,632.00
2018-05-10T04:59:48.021Z,652.00
2018-05-10T05:00:48.350Z,676.00
2018-05-10T05:01:48.123Z,708.00
2018-05-10T05:02:48.120Z,732.00
2018-05-10T05:03:48.209Z,756.00
2018-05-10T05:04:48.272Z,772.00
2018-05-10T05:05:48.199Z,784.00
2018-05-10T05:06:48.256Z,792.00
2018-05-10T05:07:48.557Z,796.00
2018-05-10T05:08:48.391Z,796.00
2018-05-10T05:09:48.320Z,788.00
2018-05-10T05:10:48.348Z,788.00
2018-05-10T05:11:48.369Z,800.00
2018-05-10T05:12:48.509Z,796.00
2018-05-10T05:13:48.454Z,796.00
2018-05-10T05:14:48.953Z,796.00
2018-05-10T05:15:48.547Z,804.00
2018-05-10T05:16:48.528Z,808.00
2018-05-10T05:17:48.552Z,800.00
2018-05-10T05:18:48.605Z,788.00
2018-05-10T05:19:48.667Z,776.00
2018-05-10T05:20:48.643Z,756.00
2018-05-10T05:21:49.039Z,744.00
2018-05-10T05:22:48.705Z,752.00
2018-05-10T05:23:48.739Z,768.00
2018-05-10T05:24:48.813Z,800.00
2018-05-10T05:25:48.815Z,816.00
2018-05-10T05:26:48.909Z,836.00
2018-05-10T05:27:48.856Z,864.00
2018-05-10T05:28:49.188Z,868.00
2018-05-10T05:29:48.927Z,848.00
2018-05-10T05:30:48.949Z,812.00
2018-05-10T05:31:48.981Z,768.00
2018-05-10T05:32:49.008Z,740.00
2018-05-10T05:33:49.044Z,740.00
2018-05-10T05:34:49.069Z,740.00
2018-05-10T05:35:49.452Z,728.00
2018-05-10T05:36:49.182Z,724.00
2018-05-10T05:37:49.166Z,716.00
2018-05-10T05:38:49.194Z,692.00
2018-05-10T05:39:49.237Z,680.00
2018-05-10T05:40:49.265Z,688.00
2018-05-10T05:41:49.291Z,708.00
2018-05-10T05:42:49.674Z,732.00
2018-05-10T05:43:49.350Z,764.00
2018-05-10T05:44:49.396Z,800.00
2018-05-10T05:45:49.407Z,836.00
2018-05-10T05:46:49.546Z,892.00
2018-05-10T05:47:49.572Z,960.00
2018-05-10T05:48:49.651Z,1036.00
2018-05-10T05:49:49.887Z,1120.00
2018-05-10T05:50:49.601Z,1200.00
2018-05-10T05:51:49.595Z,1248.00
2018-05-10T05:52:49.819Z,1304.00
2018-05-10T05:53:49.662Z,1364.00
2018-05-10T05:54:49.745Z,1420.00
2018-05-10T05:55:50.031Z,1480.00
2018-05-10T05:56:49.757Z,1488.00
2018-05-10T05:57:49.812Z,1536.00
2018-05-10T05:58:49.865Z,1568.00
2018-05-10T05:59:49.849Z,1564.00
2018-05-10T06:00:49.882Z,1688.00
2018-05-10T06:01:50.210Z,1712.00
2018-05-10T06:02:49.998Z,1684.00
2018-05-10T06:03:50.331Z,1704.00
2018-05-10T06:04:50.002Z,1712.00
2018-05-10T06:05:50.090Z,1708.00
2018-05-10T06:06:50.065Z,1724.00
2018-05-10T06:07:50.451Z,1676.00
2018-05-10T06:08:50.145Z,1624.00
2018-05-10T06:09:50.165Z,1556.00
2018-05-10T06:10:50.196Z,1516.00
2018-05-10T06:11:50.222Z,1508.00
2018-05-10T06:12:50.350Z,1548.00
2018-05-10T06:13:50.657Z,1680.00
2018-05-10T06:14:50.322Z,1816.00
2018-05-10T06:15:50.551Z,1940.00
2018-05-10T06:16:50.386Z,2032.00
2018-05-10T06:17:50.472Z,2116.00
2018-05-10T06:18:50.594Z,2168.00
2018-05-10T06:19:50.780Z,2112.00
2018-05-10T06:20:50.509Z,2012.00
2018-05-10T06:21:50.629Z,1916.00
2018-05-10T06:22:50.680Z,1856.00
2018-05-10T06:23:50.683Z,1816.00
2018-05-10T06:24:50.726Z,1848.00
2018-05-10T06:25:51.131Z,1892.00
2018-05-10T06:26:50.797Z,1976.00
2018-05-10T06:27:50.838Z,1936.00
2018-05-10T06:28:50.880Z,1972.00
2018-05-10T06:29:50.862Z,2028.00
2018-05-10T06:30:50.857Z,2032.00
2018-05-10T06:31:51.285Z,2060.00
2018-05-10T06:32:50.896Z,2152.00
2018-05-10T06:33:50.975Z,2272.00
2018-05-10T06:34:51.003Z,2304.00
2018-05-10T06:35:50.989Z,2352.00
2018-05-10T06:36:51.117Z,2364.00
2018-05-10T06:37:51.407Z,2488.00
2018-05-10T06:38:51.087Z,2572.00
2018-05-10T06:39:51.122Z,2724.00
2018-05-10T06:40:51.147Z,2976.00
2018-05-10T06:41:51.186Z,3236.00
2018-05-10T06:42:51.214Z,3336.00
2018-05-10T06:43:51.592Z,3468.00
2018-05-10T06:44:51.274Z,3540.00
2018-05-10T06:45:51.313Z,3508.00
2018-05-10T06:46:51.450Z,3448.00
2018-05-10T06:47:51.389Z,3480.00
2018-05-10T06:48:51.402Z,3584.00
2018-05-10T06:49:51.903Z,3688.00
2018-05-10T06:50:51.464Z,3728.00
2018-05-10T06:51:51.498Z,3704.00
2018-05-10T06:52:51.530Z,3684.00
2018-05-10T06:53:51.564Z,3704.00
2018-05-10T06:54:51.595Z,3756.00
2018-05-10T06:55:51.928Z,3828.00
2018-05-10T06:56:51.661Z,3824.00
2018-05-10T06:57:51.693Z,3728.00
2018-05-10T06:58:51.726Z,3576.00
2018-05-10T06:59:51.763Z,3392.00
2018-05-10T07:00:51.787Z,3208.00
2018-05-10T07:01:52.121Z,3048.00
2018-05-10T07:02:51.895Z,2924.00
2018-05-10T07:03:51.896Z,2860.00
2018-05-10T07:04:51.920Z,2868.00
2018-05-10T07:05:51.955Z,2900.00
2018-05-10T07:06:51.998Z,2924.00
2018-05-10T07:07:52.326Z,2944.00
2018-05-10T07:08:52.049Z,3008.00
2018-05-10T07:09:52.227Z,3068.00
2018-05-10T07:10:52.189Z,3160.00
2018-05-10T07:11:52.152Z,3244.00
2018-05-10T07:12:52.185Z,3208.00
2018-05-10T07:13:52.213Z,3164.00
2018-05-10T07:14:52.545Z,3216.00
2018-05-10T07:15:52.285Z,3208.00
2018-05-10T07:16:52.314Z,3216.00
2018-05-10T07:17:52.350Z,3200.00
2018-05-10T07:18:52.377Z,3104.00
2018-05-10T07:19:52.415Z,2952.00
2018-05-10T07:20:52.443Z,2980.00
2018-05-10T07:21:53.124Z,2988.00
2018-05-10T07:22:52.513Z,3036.00
2018-05-10T07:23:52.544Z,3080.00
2018-05-10T07:24:52.586Z,3068.00
2018-05-10T07:25:52.608Z,2892.00
2018-05-10T07:26:52.647Z,2756.00
2018-05-10T07:27:52.668Z,2652.00
2018-05-10T07:28:53.003Z,2572.00
2018-05-10T07:29:52.739Z,2496.00
2018-05-10T07:30:52.768Z,2396.00
2018-05-10T07:31:52.903Z,2336.00
2018-05-10T07:32:52.945Z,2336.00
2018-05-10T07:33:52.867Z,2352.00
2018-05-10T07:34:52.929Z,2320.00
2018-05-10T07:35:53.230Z,2288.00
2018-05-10T07:36:52.961Z,2256.00
2018-05-10T07:37:53.012Z,2256.00
2018-05-10T07:38:53.032Z,2328.00
2018-05-10T07:39:53.062Z,2396.00
2018-05-10T07:40:53.092Z,2424.00
2018-05-10T07:41:53.134Z,2472.00
2018-05-10T07:42:53.511Z,2488.00
2018-05-10T07:43:53.207Z,2472.00
2018-05-10T07:44:53.277Z,2496.00
2018-05-10T07:45:53.257Z,2528.00
2018-05-10T07:46:53.288Z,2556.00
2018-05-10T07:47:53.382Z,2548.00
2018-05-10T07:48:53.355Z,2576.00
2018-05-10T07:49:53.689Z,2648.00
2018-05-10T07:50:53.419Z,2724.00
2018-05-10T07:51:53.468Z,2808.00
2018-05-10T07:52:53.490Z,2924.00
2018-05-10T07:53:53.522Z,3028.00
2018-05-10T07:54:53.552Z,3156.00
2018-05-10T07:55:53.613Z,3312.00
2018-05-10T07:56:53.979Z,3424.00
2018-05-10T07:57:53.643Z,3480.00
2018-05-10T07:58:53.739Z,3528.00
2018-05-10T07:59:53.741Z,3528.00
2018-05-10T08:00:53.754Z,3400.00
2018-05-10T08:01:53.829Z,3156.00
2018-05-10T08:02:53.807Z,3032.00
2018-05-10T08:03:54.204Z,2884.00
2018-05-10T08:04:53.879Z,2796.00
2018-05-10T08:05:53.903Z,2756.00
2018-05-10T08:06:53.963Z,2844.00
2018-05-10T08:07:53.976Z,2876.00
2018-05-10T08:08:54.008Z,2840.00
2018-05-10T08:09:54.048Z,2736.00
2018-05-10T08:10:54.383Z,2784.00
2018-05-10T08:11:54.099Z,2832.00
2018-05-10T08:12:54.171Z,2832.00
2018-05-10T08:13:54.163Z,2924.00
2018-05-10T08:14:54.210Z,3004.00
2018-05-10T08:15:54.230Z,3152.00
2018-05-10T08:16:54.319Z,3188.00
2018-05-10T08:17:54.654Z,3240.00
2018-05-10T08:18:54.326Z,3392.00
2018-05-10T08:19:54.362Z,3544.00
2018-05-10T08:20:54.398Z,3696.00
2018-05-10T08:21:54.425Z,3724.00
2018-05-10T08:22:54.461Z,3712.00
2018-05-10T08:23:54.491Z,3768.00
2018-05-10T08:24:54.822Z,3740.00
2018-05-10T08:25:54.611Z,3852.00
2018-05-10T08:26:54.594Z,4056.00
2018-05-10T08:27:54.665Z,4280.00
2018-05-10T08:28:54.653Z,4492.00
2018-05-10T08:29:54.680Z,4580.00
2018-05-10T08:30:55.015Z,4596.00
2018-05-10T08:31:55.051Z,4664.00
2018-05-10T08:32:54.776Z,4720.00
2018-05-10T08:33:54.911Z,4840.00
2018-05-10T08:34:54.900Z,4948.00
2018-05-10T08:35:54.901Z,5016.00
2018-05-10T08:36:55.229Z,5052.00
2018-05-10T08:37:54.951Z,4996.00
2018-05-10T08:38:55.020Z,5048.00
2018-05-10T08:39:55.003Z,5200.00
2018-05-10T08:40:55.055Z,5404.00
2018-05-10T08:41:55.099Z,5556.00
2018-05-10T08:42:55.407Z,5644.00
2018-05-10T08:43:55.136Z,5584.00
2018-05-10T08:44:55.253Z,5536.00
2018-05-10T08:45:55.199Z,5552.00
2018-05-10T08:46:55.242Z,5516.00
2018-05-10T08:47:55.264Z,5520.00
2018-05-10T08:48:55.600Z,5532.00
2018-05-10T08:49:55.430Z,5528.00
2018-05-10T08:50:55.387Z,5484.00
2018-05-10T08:51:55.884Z,5456.00
2018-05-10T08:52:55.529Z,5476.00
2018-05-10T08:53:55.455Z,5464.00
2018-05-10T08:54:55.865Z,5412.00
2018-05-10T08:55:55.596Z,5324.00
2018-05-10T08:56:55.569Z,5164.00
2018-05-10T08:57:55.595Z,4876.00
2018-05-10T08:58:55.735Z,4696.00
2018-05-10T08:59:55.720Z,4568.00
2018-05-10T09:00:56.105Z,4724.00
2018-05-10T09:01:55.712Z,5112.00
2018-05-10T09:02:55.796Z,5452.00
2018-05-10T09:03:55.813Z,5584.00
2018-05-10T09:04:55.810Z,5668.00
2018-05-10T09:05:55.846Z,5704.00
2018-05-10T09:06:56.233Z,5604.00
2018-05-10T09:07:55.906Z,5504.00
2018-05-10T09:08:55.958Z,5364.00
2018-05-10T09:09:56.006Z,5272.00
2018-05-10T09:10:56.028Z,5292.00
2018-05-10T09:11:56.034Z,5292.00
2018-05-10T09:12:56.365Z,5228.00
2018-05-10T09:13:56.102Z,5200.00
2018-05-10T09:14:56.123Z,5268.00
2018-05-10T09:15:56.169Z,5468.00
2018-05-10T09:16:56.267Z,5676.00
2018-05-10T09:17:56.219Z,5768.00
2018-05-10T09:18:56.933Z,5712.00
2018-05-10T09:19:56.368Z,5652.00
2018-05-10T09:20:56.323Z,5672.00
2018-05-10T09:21:56.359Z,5788.00
2018-05-10T09:22:56.401Z,5852.00
2018-05-10T09:23:56.415Z,5952.00
2018-05-10T09:24:56.813Z,6008.00
2018-05-10T09:25:56.491Z,5976.00
2018-05-10T09:26:56.622Z,5848.00
2018-05-10T09:27:56.600Z,5680.00
2018-05-10T09:28:56.581Z,5476.00
2018-05-10T09:29:56.602Z,5280.00
2018-05-10T09:30:56.996Z,5116.00
2018-05-10T09:31:56.667Z,4928.00
2018-05-10T09:32:56.716Z,4780.00
2018-05-10T09:33:56.820Z,4780.00
2018-05-10T09:34:56.772Z,4864.00
2018-05-10T09:35:56.798Z,4952.00
2018-05-10T09:36:57.132Z,5000.00
2018-05-10T09:37:56.859Z,5084.00
2018-05-10T09:38:56.903Z,5184.00
2018-05-10T09:39:56.925Z,5216.00
2018-05-10T09:40:57.012Z,5196.00
2018-05-10T09:41:56.990Z,5228.00
2018-05-10T09:42:57.343Z,5276.00
2018-05-10T09:43:57.229Z,5252.00
2018-05-10T09:44:57.160Z,5068.00
2018-05-10T09:45:57.118Z,4720.00
2018-05-10T09:46:57.148Z,4340.00
2018-05-10T09:47:57.184Z,4060.00
2018-05-10T09:48:57.217Z,3848.00
2018-05-10T09:49:57.597Z,3600.00
2018-05-10T09:50:57.305Z,3408.00
2018-05-10T09:51:57.312Z,3288.00
2018-05-10T09:52:57.343Z,3276.00
2018-05-10T09:53:57.380Z,3364.00
2018-05-10T09:54:57.418Z,3532.00
2018-05-10T09:55:57.459Z,3732.00
2018-05-10T09:56:57.840Z,3972.00
2018-05-10T09:57:57.506Z,4252.00
2018-05-10T09:58:57.542Z,4540.00
2018-05-10T09:59:57.737Z,4800.00
2018-05-10T10:00:57.659Z,4968.00
2018-05-10T10:01:57.635Z,5080.00
2018-05-10T10:02:57.735Z,5208.00
2018-05-10T10:03:58.002Z,5328.00
2018-05-10T10:04:57.753Z,5408.00
2018-05-10T10:05:57.768Z,5420.00
2018-05-10T10:06:57.800Z,5408.00
2018-05-10T10:07:57.872Z,5416.00
2018-05-10T10:08:57.865Z,5516.00
2018-05-10T10:09:57.922Z,5644.00
2018-05-10T10:10:58.236Z,5768.00
2018-05-10T10:11:57.968Z,5824.00
2018-05-10T10:12:58.005Z,5852.00
2018-05-10T10:13:58.036Z,5880.00
2018-05-10T10:14:58.079Z,5992.00
2018-05-10T10:15:58.249Z,6156.00
2018-05-10T10:16:58.127Z,6260.00
2018-05-10T10:17:58.469Z,6364.00
2018-05-10T10:18:58.222Z,6472.00
2018-05-10T10:19:58.262Z,6588.00
2018-05-10T10:20:58.360Z,6704.00
2018-05-10T10:21:58.303Z,6812.00
2018-05-10T10:22:58.337Z,6908.00
2018-05-10T10:23:58.362Z,6944.00
2018-05-10T10:24:58.763Z,6888.00
2018-05-10T10:25:58.440Z,6776.00
2018-05-10T10:26:58.585Z,6400.00
2018-05-10T10:27:58.495Z,6116.00
2018-05-10T10:28:58.528Z,5952.00
2018-05-10T10:29:58.558Z,5980.00
2018-05-10T10:30:58.609Z,6060.00
2018-05-10T10:31:58.927Z,6296.00
2018-05-10T10:32:58.721Z,6524.00
2018-05-10T10:33:58.712Z,6400.00
2018-05-10T10:34:58.730Z,5624.00
2018-05-10T10:35:58.803Z,5216.00
2018-05-10T10:36:58.838Z,4492.00
2018-05-10T10:37:58.882Z,3544.00
2018-05-10T10:38:59.177Z,3476.00
2018-05-10T10:39:58.904Z,3640.00
2018-05-10T10:40:58.936Z,4336.00
2018-05-10T10:41:59.027Z,4656.00
2018-05-10T10:42:58.988Z,3932.00
2018-05-10T10:43:59.102Z,3968.00
2018-05-10T10:44:59.114Z,3580.00
2018-05-10T10:45:59.399Z,3152.00
2018-05-10T10:46:59.127Z,3724.00
2018-05-10T10:47:59.157Z,3968.00
2018-05-10T10:48:59.224Z,3232.00
2018-05-10T10:49:59.250Z,2820.00
2018-05-10T10:50:59.284Z,2680.00
2018-05-10T10:51:59.294Z,2664.00
2018-05-10T10:52:59.634Z,2348.00
2018-05-10T10:53:59.396Z,2096.00
2018-05-10T10:54:59.400Z,2056.00
2018-05-10T10:55:59.419Z,2000.00
2018-05-10T10:56:59.461Z,2116.00
2018-05-10T10:57:59.505Z,2060.00
2018-05-10T10:58:59.524Z,2208.00
2018-05-10T10:59:59.927Z,2340.00
2018-05-10T11:00:59.647Z,2556.00
2018-05-10T11:01:59.655Z,2640.00
2018-05-10T11:02:59.687Z,2920.00
2018-05-10T11:03:59.686Z,2924.00
2018-05-10T11:04:59.764Z,2392.00
2018-05-10T11:05:59.755Z,2224.00
2018-05-10T11:07:00.196Z,2448.00
2018-05-10T11:07:59.818Z,2340.00
2018-05-10T11:08:59.851Z,2456.00
2018-05-10T11:09:59.982Z,2424.00
2018-05-10T11:10:59.996Z,2584.00
2018-05-10T11:11:59.953Z,2732.00
2018-05-10T11:13:00.004Z,2508.00
2018-05-10T11:14:00.082Z,2156.00
2018-05-10T11:15:00.060Z,1968.00
2018-05-10T11:16:00.088Z,2116.00
2018-05-10T11:17:00.171Z,2496.00
2018-05-10T11:18:00.162Z,2164.00
2018-05-10T11:19:00.537Z,1988.00
2018-05-10T11:20:00.226Z,1944.00
2018-05-10T11:21:00.284Z,2140.00
2018-05-10T11:22:00.580Z,2616.00
2018-05-10T11:23:00.315Z,2944.00
2018-05-10T11:24:00.349Z,3260.00
2018-05-10T11:25:00.683Z,2808.00
2018-05-10T11:26:00.412Z,2580.00
2018-05-10T11:27:00.445Z,2596.00
2018-05-10T11:28:00.509Z,2672.00
2018-05-10T11:29:00.577Z,2624.00
2018-05-10T11:30:00.543Z,2608.00
2018-05-10T11:31:00.877Z,2724.00
2018-05-10T11:32:00.664Z,2868.00
2018-05-10T11:33:00.820Z,2436.00
2018-05-10T11:34:00.690Z,2384.00
2018-05-10T11:35:00.717Z,2584.00
2018-05-10T11:36:00.752Z,2628.00
2018-05-10T11:37:01.111Z,2540.00
2018-05-10T11:38:00.864Z,2516.00
2018-05-10T11:39:00.908Z,2384.00
2018-05-10T11:40:00.914Z,2820.00
2018-05-10T11:41:00.919Z,3508.00
2018-05-10T11:42:01.054Z,3396.00
2018-05-10T11:43:01.279Z,2780.00
2018-05-10T11:44:01.015Z,2472.00
2018-05-10T11:45:01.044Z,1968.00
2018-05-10T11:46:01.165Z,2324.00
2018-05-10T11:47:01.124Z,2836.00
2018-05-10T11:48:01.137Z,3492.00
2018-05-10T11:49:01.487Z,3752.00
2018-05-10T11:50:01.221Z,3672.00
2018-05-10T11:51:01.238Z,3092.00
2018-05-10T11:52:01.275Z,2800.00
2018-05-10T11:53:01.358Z,2956.00
2018-05-10T11:54:01.428Z,3220.00
2018-05-10T11:55:01.675Z,3424.00
2018-05-10T11:56:01.430Z,2896.00
2018-05-10T11:57:01.440Z,3056.00
2018-05-10T11:58:01.465Z,3360.00
2018-05-10T11:59:01.502Z,3364.00
2018-05-10T12:00:01.535Z,3176.00
2018-05-10T12:01:01.866Z,3212.00
2018-05-10T12:02:01.598Z,3292.00
2018-05-10T12:03:01.690Z,3400.00
2018-05-10T12:04:01.690Z,3352.00
2018-05-10T12:05:01.749Z,3060.00
2018-05-10T12:06:01.823Z,3136.00
2018-05-10T12:07:02.122Z,3012.00
2018-05-10T12:08:01.847Z,3100.00
2018-05-10T12:09:01.832Z,3208.00
2018-05-10T12:10:01.870Z,3084.00
2018-05-10T12:11:01.900Z,2928.00
2018-05-10T12:12:01.960Z,2924.00
2018-05-10T12:13:02.036Z,2836.00
2018-05-10T12:14:02.099Z,2588.00
2018-05-10T12:15:02.049Z,2524.00
2018-05-10T12:16:02.067Z,2164.00
2018-05-10T12:17:02.101Z,2240.00
2018-05-10T12:18:02.131Z,2696.00
2018-05-10T12:19:02.513Z,2524.00
2018-05-10T12:20:02.198Z,1996.00
2018-05-10T12:21:02.229Z,1824.00
2018-05-10T12:22:02.266Z,2436.00
2018-05-10T12:23:02.318Z,2656.00
2018-05-10T12:24:02.406Z,2864.00
2018-05-10T12:25:02.669Z,2612.00
2018-05-10T12:26:02.426Z,2616.00
2018-05-10T12:27:02.430Z,2792.00
2018-05-10T12:28:02.523Z,3056.00
2018-05-10T12:29:02.495Z,3080.00
2018-05-10T12:30:02.589Z,3196.00
2018-05-10T12:31:02.635Z,3092.00
2018-05-10T12:32:02.901Z,2696.00
2018-05-10T12:33:02.813Z,2828.00